createdAt,value
2023-05-06T03:02:37.352Z,12.40
2023-05-06T03:05:06.001Z,12.40
2023-05-06T03:07:33.928Z,12.40
2023-05-06T03:10:02.118Z,12.40
2023-05-06T03:12:33.710Z,12.40
2023-05-06T03:15:01.589Z,12.30
2023-05-06T03:17:30.233Z,12.30
2023-05-06T03:19:59.898Z,12.40
2023-05-06T03:22:28.273Z,12.50
2023-05-06T03:24:57.384Z,12.50
2023-05-06T03:27:26.451Z,12.40
2023-05-06T03:29:59.019Z,12.40
2023-05-06T03:32:27.085Z,12.40
2023-05-06T03:34:55.813Z,12.40
2023-05-06T03:37:25.227Z,12.40
2023-05-06T03:39:56.507Z,12.40
2023-05-06T03:42:27.402Z,12.50
2023-05-06T03:44:55.391Z,12.50
2023-05-06T03:47:24.541Z,12.40
2023-05-06T03:49:52.492Z,12.40
2023-05-06T03:52:21.039Z,12.40
2023-05-06T03:54:50.729Z,12.40
2023-05-06T03:57:19.064Z,12.30
2023-05-06T03:59:47.030Z,12.20
2023-05-06T04:02:15.767Z,12.10
2023-05-06T04:04:44.375Z,12.10
2023-05-06T04:07:13.095Z,12.10
2023-05-06T04:09:41.027Z,12.10
2023-05-06T04:12:11.122Z,12.10
2023-05-06T04:14:40.279Z,12.10
2023-05-06T04:17:09.112Z,12.10
2023-05-06T04:19:38.881Z,12.10
2023-05-06T04:22:06.775Z,12.10
2023-05-06T04:24:34.631Z,12.10
2023-05-06T04:27:04.373Z,12.20
2023-05-06T04:29:33.751Z,12.10
2023-05-06T04:32:04.867Z,12.20
2023-05-06T04:34:36.135Z,12.30
2023-05-06T04:37:05.594Z,12.30
2023-05-06T04:39:42.517Z,12.30
2023-05-06T04:42:10.443Z,12.30
2023-05-06T04:44:46.878Z,12.30
2023-05-06T04:47:14.748Z,12.30
2023-05-06T04:49:46.316Z,12.40
2023-05-06T04:52:14.517Z,12.50
2023-05-06T04:54:43.555Z,12.50
2023-05-06T04:57:13.269Z,12.40
2023-05-06T04:59:43.940Z,12.30
2023-05-06T05:02:14.259Z,12.30
2023-05-06T05:04:43.882Z,12.30
2023-05-06T05:07:11.786Z,12.20
2023-05-06T05:09:39.749Z,12.20
2023-05-06T05:12:08.824Z,12.20
2023-05-06T05:14:42.532Z,12.30
2023-05-06T05:17:12.207Z,12.40
2023-05-06T05:19:42.101Z,12.50
2023-05-06T05:22:10.467Z,12.50
2023-05-06T05:24:38.573Z,12.60
2023-05-06T05:27:06.408Z,12.60
2023-05-06T05:29:35.156Z,12.40
2023-05-06T05:32:06.653Z,12.40
2023-05-06T05:34:35.297Z,12.40
2023-05-06T05:37:04.839Z,12.40
2023-05-06T05:39:33.838Z,12.50
2023-05-06T05:42:02.244Z,12.60
2023-05-06T05:44:30.431Z,12.70
2023-05-06T05:46:58.806Z,12.80
2023-05-06T05:49:26.746Z,12.80
2023-05-06T05:51:55.024Z,12.80
2023-05-06T05:54:24.930Z,12.90
2023-05-06T05:56:52.806Z,13.10
2023-05-06T05:59:20.745Z,13.30
2023-05-06T06:01:51.164Z,13.40
2023-05-06T06:04:19.844Z,13.40
2023-05-06T06:06:47.912Z,13.50
2023-05-06T06:09:16.688Z,13.50
2023-05-06T06:11:46.482Z,13.60
2023-05-06T06:14:14.481Z,13.80
2023-05-06T06:16:43.338Z,13.90
2023-05-06T06:19:11.388Z,14.10
2023-05-06T06:21:39.238Z,14.30
2023-05-06T06:24:07.519Z,14.30
2023-05-06T06:26:35.379Z,14.30
2023-05-06T06:29:04.611Z,14.30
2023-05-06T06:31:33.923Z,14.30
2023-05-06T06:34:05.210Z,14.20
2023-05-06T06:36:33.319Z,14.10
2023-05-06T06:39:01.154Z,14.10
2023-05-06T06:41:29.087Z,14.00
2023-05-06T06:43:56.922Z,14.00
2023-05-06T06:46:28.253Z,14.00
2023-05-06T06:48:56.184Z,14.10
2023-05-06T06:51:24.038Z,14.30
2023-05-06T06:53:52.706Z,14.20
2023-05-06T06:56:21.300Z,14.30
2023-05-06T06:58:50.306Z,14.30
2023-05-06T07:01:20.243Z,14.20
2023-05-06T07:03:49.447Z,14.20
2023-05-06T07:06:17.350Z,14.40
2023-05-06T07:08:45.200Z,14.40
2023-05-06T07:11:14.292Z,14.50
2023-05-06T07:13:42.144Z,14.70
2023-05-06T07:16:10.007Z,14.90
2023-05-06T07:18:37.900Z,14.90
2023-05-06T07:21:07.293Z,15.00
2023-05-06T07:23:35.159Z,15.10
2023-05-06T07:26:03.035Z,15.20
2023-05-06T07:28:30.871Z,15.40
2023-05-06T07:30:58.754Z,15.30
2023-05-06T07:33:26.729Z,15.40
2023-05-06T07:35:54.846Z,15.60
2023-05-06T07:38:24.217Z,15.80
2023-05-06T07:40:52.924Z,16.00
2023-05-06T07:43:21.055Z,16.20
2023-05-06T07:45:48.904Z,16.30
2023-05-06T07:48:18.603Z,16.40
2023-05-06T07:50:47.633Z,16.60
2023-05-06T07:53:15.578Z,16.80
2023-05-06T07:55:44.761Z,16.90
2023-05-06T07:58:12.589Z,17.00
2023-05-06T08:00:40.621Z,17.10
2023-05-06T08:03:09.056Z,17.10
2023-05-06T08:05:37.077Z,17.20
2023-05-06T08:08:05.516Z,17.20
2023-05-06T08:10:33.521Z,17.10
2023-05-06T08:13:03.181Z,17.00
2023-05-06T08:15:31.157Z,17.00
2023-05-06T08:18:04.418Z,17.00
2023-05-06T08:20:42.196Z,17.00
2023-05-06T08:23:10.093Z,17.10
2023-05-06T08:25:37.970Z,17.10
2023-05-06T08:28:07.196Z,17.20
2023-05-06T08:30:35.157Z,17.30
2023-05-06T08:33:03.601Z,17.30
2023-05-06T08:35:31.507Z,17.40
2023-05-06T08:37:59.383Z,17.50
2023-05-06T08:40:29.308Z,17.60
2023-05-06T08:42:58.334Z,17.60
2023-05-06T08:45:29.559Z,17.60
2023-05-06T08:47:57.678Z,17.80
2023-05-06T08:50:26.783Z,17.90
2023-05-06T08:52:55.133Z,18.00
2023-05-06T08:55:23.341Z,18.00
2023-05-06T08:57:53.542Z,18.00
2023-05-06T09:00:21.625Z,18.00
2023-05-06T09:02:51.060Z,18.10
2023-05-06T09:05:19.046Z,18.20
2023-05-06T09:07:46.882Z,18.30
2023-05-06T09:10:17.743Z,18.40
2023-05-06T09:12:45.686Z,18.50
2023-05-06T09:15:13.794Z,18.50
2023-05-06T09:17:41.967Z,18.50
2023-05-06T09:20:13.480Z,18.60
2023-05-06T09:22:42.216Z,18.80
2023-05-06T09:25:11.791Z,19.00
2023-05-06T09:27:40.529Z,19.00
2023-05-06T09:30:11.575Z,19.00
2023-05-06T09:32:40.382Z,19.00
2023-05-06T09:35:11.688Z,19.10
2023-05-06T09:37:40.219Z,19.10
2023-05-06T09:40:10.118Z,19.20
2023-05-06T09:42:39.235Z,19.30
2023-05-06T09:45:10.210Z,19.30
2023-05-06T09:47:38.767Z,19.40
2023-05-06T09:50:09.847Z,19.50
2023-05-06T09:52:39.037Z,19.50
2023-05-06T09:55:08.391Z,19.60
2023-05-06T09:57:37.692Z,19.70
2023-05-06T10:00:11.953Z,19.70
2023-05-06T10:02:43.679Z,19.50
2023-05-06T10:05:13.646Z,19.60
2023-05-06T10:07:43.316Z,19.60
2023-05-06T10:10:13.389Z,19.60
2023-05-06T10:12:41.408Z,19.70
2023-05-06T10:15:10.801Z,19.70
2023-05-06T10:17:41.291Z,19.60
2023-05-06T10:20:11.471Z,19.20
2023-05-06T10:22:49.154Z,19.20
2023-05-06T10:25:27.749Z,19.60
2023-05-06T10:27:55.596Z,20.30
2023-05-06T10:30:24.696Z,20.80
2023-05-06T10:32:56.369Z,21.30
2023-05-06T10:35:33.529Z,21.70
2023-05-06T10:38:04.686Z,21.80
2023-05-06T10:40:33.276Z,22.00
2023-05-06T10:43:27.004Z,22.20
2023-05-06T10:46:03.187Z,22.30
2023-05-06T10:48:32.476Z,22.70
2023-05-06T10:51:25.928Z,22.70
2023-05-06T10:54:06.610Z,22.40
2023-05-06T10:56:36.375Z,22.50
2023-05-06T10:59:08.015Z,22.40
2023-05-06T11:01:36.628Z,22.30
2023-05-06T11:04:09.974Z,22.50
2023-05-06T11:06:41.072Z,22.60
2023-05-06T11:09:17.848Z,23.10
2023-05-06T11:12:01.679Z,23.50
2023-05-06T11:14:30.791Z,23.90
2023-05-06T11:16:59.999Z,23.60
2023-05-06T11:19:29.978Z,23.20
2023-05-06T11:21:59.038Z,22.80
2023-05-06T11:24:29.278Z,22.40
2023-05-06T11:26:59.684Z,22.40
2023-05-06T11:29:27.975Z,22.30
2023-05-06T11:31:55.867Z,22.40
2023-05-06T11:34:25.994Z,22.50
2023-05-06T11:37:05.226Z,22.80
2023-05-06T11:39:40.553Z,23.10
2023-05-06T11:42:09.395Z,23.30
2023-05-06T11:44:38.670Z,23.40
2023-05-06T11:47:08.004Z,23.40
2023-05-06T11:49:41.391Z,23.10
2023-05-06T11:52:09.881Z,23.20
2023-05-06T11:54:40.888Z,23.30
2023-05-06T11:57:09.129Z,23.50
2023-05-06T11:59:38.371Z,23.60
2023-05-06T12:02:08.436Z,23.70
2023-05-06T12:04:41.292Z,24.10
2023-05-06T12:07:11.687Z,24.80
2023-05-06T12:09:44.436Z,25.00
2023-05-06T12:12:16.152Z,25.40
2023-05-06T12:14:46.135Z,26.00
2023-05-06T12:17:14.733Z,25.80
2023-05-06T12:19:42.651Z,26.00
2023-05-06T12:22:18.663Z,26.80
2023-05-06T12:24:48.216Z,26.50
2023-05-06T12:27:16.138Z,25.70
2023-05-06T12:29:53.303Z,25.10
2023-05-06T12:32:21.154Z,24.60
2023-05-06T12:34:49.002Z,25.00
2023-05-06T12:37:26.350Z,26.20
2023-05-06T12:39:58.436Z,26.80
2023-05-06T12:42:27.318Z,26.90
2023-05-06T12:44:55.752Z,27.40
2023-05-06T12:47:25.434Z,28.20
2023-05-06T12:49:54.833Z,27.60
2023-05-06T12:52:24.133Z,27.20
2023-05-06T12:54:53.067Z,28.00
2023-05-06T12:57:22.702Z,29.10
2023-05-06T12:59:51.222Z,29.00
2023-05-06T13:02:19.612Z,28.70
2023-05-06T13:04:47.589Z,27.90
2023-05-06T13:07:15.504Z,27.20
2023-05-06T13:09:44.435Z,26.00
2023-05-06T13:12:12.418Z,25.10
2023-05-06T13:14:41.627Z,24.60
2023-05-06T13:17:09.918Z,24.50
2023-05-06T13:19:38.059Z,24.30
2023-05-06T13:22:05.956Z,24.10
2023-05-06T13:24:33.817Z,23.90
2023-05-06T13:27:02.070Z,23.60
2023-05-06T13:29:30.463Z,23.70
2023-05-06T13:32:00.613Z,24.00
2023-05-06T13:34:28.580Z,24.70
2023-05-06T13:36:57.152Z,25.80
2023-05-06T13:39:25.206Z,26.50
2023-05-06T13:41:54.135Z,26.10
2023-05-06T13:44:22.691Z,25.40
2023-05-06T13:46:50.790Z,25.10
2023-05-06T13:49:20.591Z,24.80
2023-05-06T13:51:48.735Z,24.60
2023-05-06T13:54:16.658Z,24.40
2023-05-06T13:56:44.717Z,23.50
2023-05-06T13:59:13.913Z,22.90
2023-05-06T14:01:42.585Z,22.60
2023-05-06T14:04:10.698Z,22.60
2023-05-06T14:06:40.543Z,22.60
2023-05-06T14:09:08.589Z,22.70
2023-05-06T14:11:36.689Z,22.50
2023-05-06T14:14:04.718Z,22.40
2023-05-06T14:16:32.667Z,22.40
2023-05-06T14:19:01.055Z,22.20
2023-05-06T14:21:28.912Z,22.00
2023-05-06T14:23:58.295Z,22.00
2023-05-06T14:26:26.817Z,22.10
2023-05-06T14:28:54.679Z,22.10
2023-05-06T14:31:23.285Z,22.00
2023-05-06T14:33:51.223Z,22.10
2023-05-06T14:36:19.841Z,22.00
2023-05-06T14:38:47.650Z,22.00
2023-05-06T14:41:16.834Z,22.00
2023-05-06T14:43:44.652Z,22.10
2023-05-06T14:46:14.556Z,22.20
2023-05-06T14:48:43.300Z,22.10
2023-05-06T14:51:11.291Z,21.90
2023-05-06T14:53:39.131Z,21.90
2023-05-06T14:56:09.373Z,22.00
2023-05-06T14:58:39.145Z,22.00
2023-05-06T15:01:07.093Z,21.90
2023-05-06T15:03:36.174Z,21.80
2023-05-06T15:06:04.478Z,21.90
2023-05-06T15:08:32.532Z,21.90
2023-05-06T15:11:03.066Z,21.90
2023-05-06T15:13:31.829Z,22.10
2023-05-06T15:16:01.032Z,22.10
2023-05-06T15:18:28.918Z,21.90
2023-05-06T15:20:58.615Z,21.80
2023-05-06T15:23:26.632Z,21.70
2023-05-06T15:25:54.522Z,21.70
2023-05-06T15:28:24.574Z,21.70
2023-05-06T15:30:52.728Z,21.80
2023-05-06T15:33:22.253Z,21.90
2023-05-06T15:35:50.308Z,21.90
2023-05-06T15:38:18.222Z,22.10
2023-05-06T15:40:51.886Z,22.10
2023-05-06T15:43:23.743Z,22.10
2023-05-06T15:45:52.387Z,22.20
2023-05-06T15:48:21.885Z,22.10
2023-05-06T15:50:49.760Z,22.10
2023-05-06T15:53:17.978Z,22.10
2023-05-06T15:55:52.871Z,22.00
2023-05-06T15:58:25.356Z,22.00
2023-05-06T16:00:53.290Z,22.00
2023-05-06T16:03:22.876Z,21.90
2023-05-06T16:05:54.368Z,21.90
2023-05-06T16:08:22.226Z,21.80
2023-05-06T16:10:50.186Z,21.80
2023-05-06T16:13:18.121Z,21.80
2023-05-06T16:15:46.153Z,21.80
2023-05-06T16:18:14.037Z,21.80
2023-05-06T16:20:43.347Z,21.70
2023-05-06T16:23:11.427Z,21.80
2023-05-06T16:25:39.540Z,21.70
2023-05-06T16:28:08.787Z,21.70
2023-05-06T16:30:37.486Z,21.70
2023-05-06T16:33:06.015Z,21.60
2023-05-06T16:35:34.000Z,21.70
2023-05-06T16:38:03.179Z,21.60
2023-05-06T16:40:31.196Z,21.60
2023-05-06T16:42:59.098Z,21.60
2023-05-06T16:45:26.914Z,21.60
2023-05-06T16:47:54.870Z,21.50
2023-05-06T16:50:22.782Z,21.50
2023-05-06T16:52:50.627Z,21.40
2023-05-06T16:55:21.795Z,21.40
2023-05-06T16:57:49.739Z,21.30
2023-05-06T17:00:18.402Z,21.30
2023-05-06T17:02:46.329Z,21.30
2023-05-06T17:05:14.255Z,21.30
2023-05-06T17:07:42.074Z,21.30
2023-05-06T17:10:10.894Z,21.30
2023-05-06T17:12:41.572Z,21.30
2023-05-06T17:15:10.270Z,21.30
2023-05-06T17:17:38.146Z,21.20
2023-05-06T17:20:07.076Z,21.20
2023-05-06T17:22:35.114Z,21.20
2023-05-06T17:25:04.187Z,21.20
2023-05-06T17:27:32.062Z,21.10
2023-05-06T17:30:01.959Z,21.10
2023-05-06T17:32:29.941Z,21.10
2023-05-06T17:34:58.084Z,21.00
2023-05-06T17:37:25.928Z,21.00
2023-05-06T17:39:54.567Z,21.00
2023-05-06T17:42:22.558Z,20.90
2023-05-06T17:44:50.416Z,20.90
2023-05-06T17:47:22.634Z,20.90
2023-05-06T17:49:51.760Z,20.80
2023-05-06T17:52:19.707Z,20.80
2023-05-06T17:54:56.948Z,20.70
2023-05-06T17:57:30.305Z,20.80
2023-05-06T17:59:58.167Z,20.70
2023-05-06T18:02:27.429Z,20.70
2023-05-06T18:04:55.337Z,20.60
2023-05-06T18:07:23.161Z,20.60
2023-05-06T18:09:52.043Z,20.60
2023-05-06T18:12:20.038Z,20.60
2023-05-06T18:14:48.741Z,20.60
2023-05-06T18:17:16.588Z,20.50
2023-05-06T18:19:45.765Z,20.50
2023-05-06T18:22:13.623Z,20.40
2023-05-06T18:24:42.536Z,20.40
2023-05-06T18:27:10.479Z,20.40
2023-05-06T18:29:38.393Z,20.30
2023-05-06T18:32:07.079Z,20.30
2023-05-06T18:34:35.133Z,20.30
2023-05-06T18:37:04.595Z,20.20
2023-05-06T18:39:32.780Z,20.20
2023-05-06T18:42:00.697Z,20.20
2023-05-06T18:44:28.545Z,20.10
2023-05-06T18:46:56.389Z,20.00
2023-05-06T18:49:25.186Z,20.10
2023-05-06T18:51:54.083Z,20.10
2023-05-06T18:54:23.328Z,20.00
2023-05-06T18:56:51.617Z,20.00
2023-05-06T18:59:19.605Z,19.90
2023-05-06T19:01:47.461Z,19.90
2023-05-06T19:04:16.216Z,19.90
2023-05-06T19:06:44.200Z,19.90
2023-05-06T19:09:12.158Z,19.90
2023-05-06T19:11:41.330Z,19.90
2023-05-06T19:14:09.161Z,19.80
2023-05-06T19:16:37.085Z,19.80
2023-05-06T19:19:07.066Z,19.70
2023-05-06T19:21:35.509Z,19.70
2023-05-06T19:24:03.375Z,19.70
2023-05-06T19:26:31.293Z,19.60
2023-05-06T19:29:00.471Z,19.60
2023-05-06T19:31:28.350Z,19.60
2023-05-06T19:33:56.215Z,19.60
2023-05-06T19:36:24.105Z,19.60
2023-05-06T19:38:52.075Z,19.60
2023-05-06T19:41:19.989Z,19.60
2023-05-06T19:43:48.028Z,19.50
2023-05-06T19:46:17.664Z,19.50
2023-05-06T19:48:46.740Z,19.40
2023-05-06T19:51:14.600Z,19.40
2023-05-06T19:53:42.497Z,19.30
2023-05-06T19:56:11.330Z,19.30
2023-05-06T19:58:39.600Z,19.30
2023-05-06T20:01:07.584Z,19.20
2023-05-06T20:03:37.057Z,19.20
2023-05-06T20:06:05.300Z,19.10
2023-05-06T20:08:33.160Z,19.10
2023-05-06T20:11:01.017Z,19.10
2023-05-06T20:13:28.984Z,19.10
2023-05-06T20:15:57.305Z,19.00
2023-05-06T20:18:25.465Z,19.00
2023-05-06T20:20:54.644Z,19.00
2023-05-06T20:23:22.491Z,18.90
2023-05-06T20:25:50.390Z,19.00
2023-05-06T20:28:18.448Z,18.90
2023-05-06T20:30:46.558Z,19.00
2023-05-06T20:33:14.463Z,18.90
2023-05-06T20:35:42.534Z,18.90
2023-05-06T20:38:12.045Z,19.00
2023-05-06T20:40:39.888Z,18.90
2023-05-06T20:43:07.756Z,18.90
2023-05-06T20:45:35.664Z,18.90
2023-05-06T20:48:03.677Z,18.90
2023-05-06T20:50:31.597Z,18.90
2023-05-06T20:52:59.486Z,18.80
2023-05-06T20:55:28.747Z,18.80
2023-05-06T20:57:56.602Z,18.70
2023-05-06T21:00:24.537Z,18.80
2023-05-06T21:02:52.442Z,18.80
2023-05-06T21:05:20.393Z,18.80
2023-05-06T21:07:48.261Z,18.80
2023-05-06T21:10:16.108Z,18.70
2023-05-06T21:12:49.405Z,18.70
2023-05-06T21:15:17.660Z,18.70
2023-05-06T21:17:45.746Z,18.70
2023-05-06T21:20:14.264Z,18.70
2023-05-06T21:22:42.207Z,18.70
2023-05-06T21:25:13.112Z,18.70
2023-05-06T21:27:41.166Z,18.70
2023-05-06T21:30:11.428Z,18.70
2023-05-06T21:32:39.280Z,18.60
2023-05-06T21:35:08.245Z,18.50
2023-05-06T21:37:36.558Z,18.60
2023-05-06T21:40:05.022Z,18.60
2023-05-06T21:42:32.886Z,18.70
2023-05-06T21:45:00.802Z,18.60
2023-05-06T21:47:30.050Z,18.60
2023-05-06T21:49:57.908Z,18.60
2023-05-06T21:52:25.804Z,18.60
2023-05-06T21:54:54.668Z,18.60
2023-05-06T21:57:22.526Z,18.60
2023-05-06T21:59:50.374Z,18.50
